Chandler, Arizona
Current Conditions -  °F | °C
As of 8:47 AM on Monday 26 Jan 2015 (Local Time) from KCHD Reporting Station
Broken Clouds Broken Clouds  
Wind Chill: 50°   Ceiling: 20000
Heat Index: 50°   Visibility: 40mi
Dew Point: 34°   Wind: 0mph
Humidity: 54%   Direction: NA
Pressure: 30.13"   Gusts: NA
Location:  33.3°N, 111.84°W
Report Text: KCHD 261547Z 00000KT 40SM SCT100 BKN200 10/01 A3013
Loading
Personal Weather Stations






























Interactive Weather Map New forecast layout! Learn more

10-Day Weather Forecast

Advertisements
Track Severe Weather on mobile